Station History

Weather Underground - logo

Station Historical Data
Daily Summary for December 11, 2017 Units:  English    Metric   Both
« Previous Day
Next Day »
Daily Weekly Monthly Yearly Custom
  High: Low: Average:
Temperature: 63.5 °F 32.0 °F 46 °F
Dew Point: 43.2 °F 29.1 °F 37.3 °F
Humidity: 92 % 43 % 74 %
Wind Speed: 4.0 mph 0.0 mph 0.4 mph
Wind Gust: 4.0 mph - -
Wind:- - West
Pressure: 30.39 in 30.29 in -
Precipitation: 0.00 in    
Historical Graphs
 
 
Tabular Data for December 11, 2017
Time Temperature Dew Point Pressure Wind Wind Speed Wind Gust Humidity Rainfall Rate (Hourly)
00:05 43.1 °F 36.0 °F 30.29 in Calm     76 % 0.00 in
00:10 43.1 °F 36.0 °F 30.29 in NW 1.0 mph 1.0 mph 76 % 0.00 in
00:15 43.5 °F 36.1 °F 30.29 in Calm     75 % 0.00 in
00:20 43.7 °F 36.0 °F 30.29 in WNW 1.2 mph   74 % 0.00 in
00:25 43.8 °F 36.0 °F 30.29 in Calm     74 % 0.00 in
00:30 43.8 °F 35.7 °F 30.29 in NW 1.2 mph 1.2 mph 73 % 0.00 in
00:46 44.7 °F 35.1 °F 30.29 in Calm     69 % 0.00 in
00:51 44.9 °F 35.0 °F 30.29 in NW 1.2 mph 1.2 mph 68 % 0.00 in
00:56 45.0 °F 35.1 °F 30.29 in NNW 1.0 mph 1.0 mph 68 % 0.00 in
01:01 45.0 °F 34.7 °F 30.29 in NW 2.3 mph 2.3 mph 67 % 0.00 in
01:11 45.1 °F 35.2 °F 30.29 in Calm     68 % 0.00 in
01:16 45.0 °F 35.4 °F 30.29 in Calm     69 % 0.00 in
01:31 44.1 °F 35.3 °F 30.29 in Calm     71 % 0.00 in
01:36 43.5 °F 35.1 °F 30.29 in Calm     72 % 0.00 in
01:41 42.7 °F 35.0 °F 30.29 in Calm     74 % 0.00 in
01:46 41.9 °F 34.6 °F 30.29 in Calm     75 % 0.00 in
01:51 41.2 °F 34.5 °F 30.29 in Calm     77 % 0.00 in
01:56 40.4 °F 34.1 °F 30.29 in Calm     78 % 0.00 in
02:01 39.5 °F 33.8 °F 30.29 in Calm     80 % 0.00 in
02:06 38.9 °F 33.6 °F 30.29 in Calm     81 % 0.00 in
02:11 38.5 °F 33.8 °F 30.29 in Calm     83 % 0.00 in
02:16 38.2 °F 33.8 °F 30.29 in Calm     84 % 0.00 in
02:21 37.7 °F 33.0 °F 30.29 in Calm     83 % 0.00 in
02:26 37.0 °F 32.6 °F 30.29 in Calm     84 % 0.00 in
02:32 36.5 °F 32.4 °F 30.29 in Calm     85 % 0.00 in
02:37 36.3 °F 32.5 °F 30.29 in Calm     86 % 0.00 in
02:42 36.3 °F 32.5 °F 30.29 in Calm     86 % 0.00 in
02:47 36.1 °F 32.3 °F 30.29 in Calm     86 % 0.00 in
02:52 35.8 °F 32.3 °F 30.29 in Calm     87 % 0.00 in
02:57 35.8 °F 32.6 °F 30.29 in Calm     88 % 0.00 in
03:02 35.9 °F 32.7 °F 30.29 in Calm     88 % 0.00 in
03:07 35.8 °F 32.3 °F 30.29 in Calm     87 % 0.00 in
03:12 35.6 °F 32.1 °F 30.29 in Calm     87 % 0.00 in
03:17 35.5 °F 32.0 °F 30.29 in Calm     87 % 0.00 in
03:22 35.3 °F 31.8 °F 30.29 in Calm     87 % 0.00 in
03:27 35.3 °F 32.1 °F 30.29 in Calm     88 % 0.00 in
03:32 35.6 °F 32.4 °F 30.29 in Calm     88 % 0.00 in
03:37 35.5 °F 31.7 °F 30.29 in Calm     86 % 0.00 in
03:42 35.0 °F 31.2 °F 30.30 in Calm     86 % 0.00 in
03:47 34.8 °F 31.3 °F 30.30 in Calm     87 % 0.00 in
03:52 34.4 °F 30.6 °F 30.30 in Calm     86 % 0.00 in
03:57 33.7 °F 30.2 °F 30.30 in Calm     87 % 0.00 in
04:02 33.7 °F 30.8 °F 30.30 in Calm     89 % 0.00 in
04:07 33.9 °F 31.3 °F 30.30 in Calm     90 % 0.00 in
04:12 34.1 °F 31.5 °F 30.30 in Calm     90 % 0.00 in
04:17 34.2 °F 31.6 °F 30.30 in Calm     90 % 0.00 in
04:22 34.3 °F 31.7 °F 30.31 in Calm     90 % 0.00 in
04:27 34.3 °F 31.7 °F 30.31 in Calm     90 % 0.00 in
04:32 34.1 °F 31.5 °F 30.31 in Calm     90 % 0.00 in
04:37 34.1 °F 31.5 °F 30.31 in Calm   0.1 mph 90 % 0.00 in
04:42 33.8 °F 30.9 °F 30.32 in Calm     89 % 0.00 in
04:47 33.9 °F 31.0 °F 30.32 in Calm     89 % 0.00 in
04:52 33.7 °F 30.8 °F 30.32 in Calm     89 % 0.00 in
04:57 33.6 °F 30.7 °F 30.32 in Calm     89 % 0.00 in
05:02 33.4 °F 30.5 °F 30.32 in North 1.2 mph   89 % 0.00 in
05:07 33.6 °F 30.7 °F 30.32 in Calm     89 % 0.00 in
05:12 33.4 °F 30.5 °F 30.33 in Calm     89 % 0.00 in
05:17 32.9 °F 29.7 °F 30.33 in North 1.2 mph 1.2 mph 88 % 0.00 in
05:22 32.3 °F 29.1 °F 30.33 in Calm     88 % 0.00 in
05:27 32.0 °F 29.1 °F 30.33 in North 1.2 mph   89 % 0.00 in
05:32 32.0 °F 29.4 °F 30.33 in Calm     90 % 0.00 in
05:37 32.4 °F 30.1 °F 30.33 in North 1.2 mph   91 % 0.00 in
05:42 32.8 °F 30.7 °F 30.33 in Calm     92 % 0.00 in
05:47 33.1 °F 31.0 °F 30.33 in Calm     92 % 0.00 in
05:52 33.3 °F 31.0 °F 30.33 in North 1.2 mph   91 % 0.00 in
05:57 33.3 °F 31.0 °F 30.34 in North 1.2 mph   91 % 0.00 in
06:07 33.3 °F 31.0 °F 30.34 in North 1.2 mph   91 % 0.00 in
06:12 33.0 °F 30.4 °F 30.34 in Calm     90 % 0.00 in
06:17 32.9 °F 30.6 °F 30.34 in Calm     91 % 0.00 in
06:22 33.0 °F 30.7 °F 30.34 in Calm     91 % 0.00 in
06:27 33.0 °F 30.7 °F 30.34 in Calm     91 % 0.00 in
06:32 32.9 °F 30.6 °F 30.34 in Calm     91 % 0.00 in
06:37 33.1 °F 30.8 °F 30.34 in Calm     91 % 0.00 in
06:42 33.1 °F 30.8 °F 30.34 in Calm     91 % 0.00 in
06:47 33.1 °F 30.8 °F 30.34 in Calm     91 % 0.00 in
06:52 33.0 °F 30.9 °F 30.34 in Calm     92 % 0.00 in
06:57 32.9 °F 30.8 °F 30.34 in Calm     92 % 0.00 in
07:02 33.1 °F 31.0 °F 30.35 in Calm     92 % 0.00 in
07:07 33.0 °F 30.9 °F 30.35 in Calm     92 % 0.00 in
07:12 33.1 °F 31.0 °F 30.35 in Calm     92 % 0.00 in
07:17 33.3 °F 31.2 °F 30.35 in Calm     92 % 0.00 in
07:23 33.3 °F 31.2 °F 30.35 in Calm     92 % 0.00 in
07:28 33.3 °F 31.2 °F 30.35 in Calm     92 % 0.00 in
07:32 33.6 °F 31.5 °F 30.35 in Calm     92 % 0.00 in
07:38 34.2 °F 32.1 °F 30.35 in Calm     92 % 0.00 in
07:43 34.7 °F 32.6 °F 30.35 in Calm     92 % 0.00 in
07:48 35.3 °F 33.2 °F 30.35 in Calm     92 % 0.00 in
07:53 35.9 °F 33.5 °F 30.35 in North 1.2 mph 1.2 mph 91 % 0.00 in
07:58 36.6 °F 33.9 °F 30.35 in Calm     90 % 0.00 in
08:03 37.2 °F 34.3 °F 30.35 in Calm     89 % 0.00 in
08:08 37.6 °F 34.4 °F 30.36 in Calm     88 % 0.00 in
08:13 38.1 °F 34.6 °F 30.36 in Calm     87 % 0.00 in
08:18 39.3 °F 35.8 °F 30.36 in Calm     87 % 0.00 in
08:23 39.9 °F 35.5 °F 30.36 in Calm     84 % 0.00 in
08:28 40.2 °F 35.4 °F 30.36 in Calm     83 % 0.00 in
08:33 41.3 °F 36.8 °F 30.36 in Calm     84 % 0.00 in
08:38 43.4 °F 38.6 °F 30.37 in Calm     83 % 0.00 in
08:43 45.4 °F 38.9 °F 30.37 in Calm     78 % 0.00 in
08:46 46.2 °F 39.1 °F 30.37 in North 1.2 mph 1.2 mph 76 % 0.00 in
08:51 45.9 °F 38.4 °F 30.37 in Calm     75 % 0.00 in
08:56 44.9 °F 38.1 °F 30.38 in Calm     77 % 0.00 in
09:01 44.5 °F 38.1 °F 30.38 in Calm     78 % 0.00 in
09:06 44.6 °F 38.2 °F 30.38 in Calm     78 % 0.00 in
09:11 44.8 °F 38.0 °F 30.38 in Calm     77 % 0.00 in
09:16 45.3 °F 38.2 °F 30.38 in NNW 1.2 mph   76 % 0.00 in
09:21 45.9 °F 38.4 °F 30.38 in Calm     75 % 0.00 in
09:26 46.5 °F 38.3 °F 30.39 in Calm     73 % 0.00 in
09:31 47.1 °F 38.5 °F 30.39 in NW 1.2 mph   72 % 0.00 in
09:36 47.6 °F 39.0 °F 30.39 in Calm     72 % 0.00 in
09:41 48.0 °F 39.0 °F 30.39 in Calm     71 % 0.00 in
09:46 48.8 °F 39.1 °F 30.39 in Calm     69 % 0.00 in
09:51 50.1 °F 39.2 °F 30.39 in SSE 1.2 mph   66 % 0.00 in
10:02 51.4 °F 39.2 °F 30.39 in Calm     63 % 0.00 in
10:07 52.1 °F 40.3 °F 30.39 in SE 1.0 mph   64 % 0.00 in
10:12 52.5 °F 40.3 °F 30.38 in South 1.2 mph 1.2 mph 63 % 0.00 in
10:17 52.8 °F 40.1 °F 30.38 in East 1.2 mph 1.2 mph 62 % 0.00 in
10:22 53.0 °F 41.5 °F 30.38 in Calm     65 % 0.00 in
10:27 53.4 °F 40.3 °F 30.37 in Calm     61 % 0.00 in
10:32 54.1 °F 41.4 °F 30.37 in SE 1.2 mph 1.2 mph 62 % 0.00 in
10:37 54.7 °F 41.1 °F 30.37 in NNE 1.2 mph 1.2 mph 60 % 0.00 in
10:42 55.0 °F 40.5 °F 30.37 in Calm     58 % 0.00 in
10:47 54.7 °F 40.2 °F 30.37 in Calm     58 % 0.00 in
10:52 54.9 °F 39.9 °F 30.37 in Calm     57 % 0.00 in
10:57 55.5 °F 41.0 °F 30.36 in Calm     58 % 0.00 in
11:02 56.2 °F 40.7 °F 30.36 in SW 1.2 mph   56 % 0.00 in
11:07 56.3 °F 40.3 °F 30.36 in NW 1.0 mph 1.0 mph 55 % 0.00 in
11:12 57.0 °F 41.4 °F 30.36 in Calm     56 % 0.00 in
11:17 57.9 °F 40.9 °F 30.35 in Calm     53 % 0.00 in
11:22 57.9 °F 40.4 °F 30.35 in Calm     52 % 0.00 in
11:27 57.8 °F 40.8 °F 30.35 in NW 1.2 mph 1.2 mph 53 % 0.00 in
11:32 57.9 °F 40.9 °F 30.34 in Calm     53 % 0.00 in
11:37 57.8 °F 40.3 °F 30.34 in NNE 1.2 mph   52 % 0.00 in
11:42 58.3 °F 41.2 °F 30.34 in Calm     53 % 0.00 in
11:47 58.8 °F 41.7 °F 30.33 in Calm     53 % 0.00 in
11:52 59.0 °F 41.4 °F 30.33 in WNW 1.2 mph   52 % 0.00 in
11:57 59.1 °F 41.0 °F 30.33 in Calm   0.1 mph 51 % 0.00 in
12:02 59.2 °F 41.1 °F 30.33 in NW 1.0 mph   51 % 0.00 in
12:07 59.4 °F 41.3 °F 30.33 in NW 1.2 mph 1.2 mph 51 % 0.00 in
12:12 59.8 °F 41.6 °F 30.33 in SE 1.2 mph   51 % 0.00 in
12:17 60.1 °F 40.9 °F 30.32 in Calm     49 % 0.00 in
12:22 60.3 °F 41.0 °F 30.32 in Calm     49 % 0.00 in
12:27 60.7 °F 41.4 °F 30.32 in Calm   0.4 mph 49 % 0.00 in
12:30 60.8 °F 41.0 °F 30.32 in Calm     48 % 0.00 in
12:35 61.1 °F 40.7 °F 30.32 in ENE 1.2 mph   47 % 0.00 in
12:40 61.6 °F 41.2 °F 30.31 in West 1.2 mph 1.2 mph 47 % 0.00 in
12:45 61.8 °F 41.3 °F 30.31 in West 1.2 mph 1.2 mph 47 % 0.00 in
12:50 62.0 °F 41.0 °F 30.31 in NW 1.2 mph 1.2 mph 46 % 0.00 in
12:55 62.3 °F 41.2 °F 30.31 in NW 1.2 mph 1.2 mph 46 % 0.00 in
13:01 62.6 °F 41.5 °F 30.31 in WNW 1.2 mph 1.2 mph 46 % 0.00 in
13:06 62.6 °F 40.9 °F 30.31 in WNW 1.2 mph 1.2 mph 45 % 0.00 in
13:11 62.7 °F 41.6 °F 30.31 in NNW 1.0 mph 1.7 mph 46 % 0.00 in
13:16 62.9 °F 40.6 °F 30.31 in WNW 1.2 mph 1.2 mph 44 % 0.00 in
13:21 62.8 °F 41.1 °F 30.30 in WNW 1.0 mph 1.0 mph 45 % 0.00 in
13:26 62.9 °F 41.8 °F 30.30 in WNW 2.3 mph 2.3 mph 46 % 0.00 in
13:31 63.0 °F 40.1 °F 30.30 in NW 2.3 mph 2.3 mph 43 % 0.00 in
13:36 63.1 °F 40.8 °F 30.30 in West 1.2 mph 1.2 mph 44 % 0.00 in
13:46 63.4 °F 41.7 °F 30.30 in Calm     45 % 0.00 in
13:51 63.4 °F 41.1 °F 30.30 in NW 1.2 mph 1.2 mph 44 % 0.00 in
13:56 63.5 °F 41.2 °F 30.30 in NW 2.3 mph 2.3 mph 44 % 0.00 in
14:01 63.5 °F 41.8 °F 30.30 in NW 2.3 mph 2.3 mph 45 % 0.00 in
14:06 63.4 °F 41.7 °F 30.30 in WNW 2.0 mph 2.0 mph 45 % 0.00 in
14:11 63.2 °F 41.5 °F 30.30 in NW 3.5 mph 3.5 mph 45 % 0.00 in
14:16 63.2 °F 41.5 °F 30.30 in NW 4.0 mph 4.0 mph 45 % 0.00 in
14:21 63.1 °F 42.0 °F 30.30 in NNW 3.5 mph 3.5 mph 46 % 0.00 in
14:31 62.9 °F 42.4 °F 30.30 in WNW 1.2 mph 1.2 mph 47 % 0.00 in
14:36 62.9 °F 41.8 °F 30.30 in NW 2.3 mph 2.3 mph 46 % 0.00 in
14:41 62.7 °F 41.6 °F 30.30 in NNW 2.3 mph 2.3 mph 46 % 0.00 in
14:46 62.4 °F 41.3 °F 30.30 in NW 2.3 mph 2.3 mph 46 % 0.00 in
14:51 62.3 °F 41.2 °F 30.30 in NW 2.3 mph 2.3 mph 46 % 0.00 in
14:56 62.2 °F 41.7 °F 30.30 in North 1.0 mph   47 % 0.00 in
15:01 62.0 °F 42.1 °F 30.30 in WNW 4.0 mph 4.0 mph 48 % 0.00 in
15:06 61.9 °F 42.0 °F 30.30 in WNW 2.3 mph 2.3 mph 48 % 0.00 in
15:11 61.7 °F 41.8 °F 30.30 in WNW 2.3 mph 2.3 mph 48 % 0.00 in
15:16 61.5 °F 42.2 °F 30.30 in NW 1.2 mph 1.2 mph 49 % 0.00 in
15:21 61.3 °F 42.0 °F 30.30 in NW 2.3 mph 2.3 mph 49 % 0.00 in
15:26 61.1 °F 41.8 °F 30.30 in NW 1.2 mph 1.2 mph 49 % 0.00 in
15:31 60.9 °F 42.1 °F 30.30 in NW 1.2 mph 1.2 mph 50 % 0.00 in
15:36 60.5 °F 42.8 °F 30.30 in WNW 1.2 mph   52 % 0.00 in
15:41 60.1 °F 42.9 °F 30.30 in Calm     53 % 0.00 in
15:46 59.6 °F 42.9 °F 30.30 in Calm     54 % 0.00 in
15:51 59.2 °F 43.0 °F 30.30 in Calm     55 % 0.00 in
15:56 58.8 °F 43.1 °F 30.30 in Calm     56 % 0.00 in
16:01 58.4 °F 43.2 °F 30.30 in Calm     57 % 0.00 in
16:06 57.9 °F 43.2 °F 30.30 in Calm     58 % 0.00 in
16:11 57.5 °F 42.8 °F 30.30 in Calm     58 % 0.00 in
16:13 57.3 °F 42.6 °F 30.30 in Calm     58 % 0.00 in
16:16 57.0 °F 42.4 °F 30.30 in Calm     58 % 0.00 in
16:21 56.6 °F 42.9 °F 30.30 in Calm     60 % 0.00 in
16:26 56.2 °F 42.9 °F 30.30 in Calm     61 % 0.00 in
16:31 55.8 °F 42.5 °F 30.30 in Calm     61 % 0.00 in
16:37 55.2 °F 42.8 °F 30.30 in Calm     63 % 0.00 in
16:42 54.6 °F 43.1 °F 30.30 in Calm     65 % 0.00 in
16:47 54.1 °F 43.0 °F 30.30 in Calm     66 % 0.00 in
16:52 53.5 °F 42.8 °F 30.30 in Calm     67 % 0.00 in
16:57 53.0 °F 42.3 °F 30.30 in Calm     67 % 0.00 in
17:02 52.5 °F 42.2 °F 30.30 in Calm     68 % 0.00 in
17:07 51.9 °F 42.0 °F 30.30 in Calm     69 % 0.00 in
17:12 51.4 °F 41.9 °F 30.30 in Calm     70 % 0.00 in
17:17 51.0 °F 41.9 °F 30.30 in Calm     71 % 0.00 in
17:18 50.9 °F 41.8 °F 30.30 in Calm     71 % 0.00 in
17:23 50.5 °F 41.8 °F 30.30 in Calm     72 % 0.00 in
17:28 50.0 °F 41.3 °F 30.30 in Calm     72 % 0.00 in
17:29 49.9 °F 41.6 °F 30.30 in Calm     73 % 0.00 in
17:34 49.4 °F 41.5 °F 30.30 in Calm     74 % 0.00 in
17:39 49.1 °F 41.9 °F 30.31 in Calm     76 % 0.00 in
17:44 48.8 °F 41.6 °F 30.31 in Calm     76 % 0.00 in
17:49 48.4 °F 41.2 °F 30.31 in Calm     76 % 0.00 in
17:54 48.3 °F 41.4 °F 30.31 in Calm     77 % 0.00 in
17:59 48.1 °F 41.2 °F 30.31 in Calm     77 % 0.00 in
18:04 47.8 °F 40.9 °F 30.31 in Calm     77 % 0.00 in
18:09 47.4 °F 40.9 °F 30.31 in Calm     78 % 0.00 in
18:14 47.1 °F 40.9 °F 30.32 in Calm     79 % 0.00 in
18:19 46.7 °F 40.5 °F 30.31 in Calm     79 % 0.00 in
18:24 46.5 °F 40.7 °F 30.32 in Calm     80 % 0.00 in
18:29 46.3 °F 40.5 °F 30.32 in Calm     80 % 0.00 in
18:34 46.1 °F 40.3 °F 30.32 in Calm     80 % 0.00 in
18:44 45.3 °F 39.8 °F 30.33 in Calm     81 % 0.00 in
18:49 45.1 °F 39.9 °F 30.33 in Calm     82 % 0.00 in
18:54 44.9 °F 39.7 °F 30.33 in Calm     82 % 0.00 in
18:59 44.7 °F 39.5 °F 30.33 in Calm     82 % 0.00 in
19:09 44.6 °F 39.4 °F 30.34 in Calm     82 % 0.00 in
19:14 44.4 °F 39.2 °F 30.34 in Calm     82 % 0.00 in
19:15 44.4 °F 39.2 °F 30.34 in Calm     82 % 0.00 in
19:20 44.2 °F 39.4 °F 30.34 in Calm     83 % 0.00 in
19:25 44.1 °F 39.3 °F 30.34 in Calm     83 % 0.00 in
19:30 44.6 °F 39.4 °F 30.34 in Calm     82 % 0.00 in
19:35 44.7 °F 39.5 °F 30.35 in Calm     82 % 0.00 in
19:40 45.0 °F 39.5 °F 30.35 in Calm     81 % 0.00 in
19:45 45.0 °F 39.2 °F 30.35 in Calm     80 % 0.00 in
19:50 45.0 °F 39.2 °F 30.35 in East 1.2 mph   80 % 0.00 in
19:55 44.9 °F 39.1 °F 30.35 in Calm     80 % 0.00 in
20:00 44.7 °F 38.9 °F 30.35 in Calm     80 % 0.00 in
20:05 44.5 °F 39.0 °F 30.35 in Calm     81 % 0.00 in
20:11 44.3 °F 38.8 °F 30.35 in Calm     81 % 0.00 in
20:16 44.3 °F 39.2 °F 30.35 in Calm     82 % 0.00 in
20:21 44.0 °F 38.5 °F 30.35 in Calm     81 % 0.00 in
20:26 43.7 °F 38.6 °F 30.36 in Calm     82 % 0.00 in
20:31 43.5 °F 38.4 °F 30.36 in Calm     82 % 0.00 in
20:36 43.1 °F 38.0 °F 30.35 in Calm     82 % 0.00 in
20:41 42.7 °F 37.9 °F 30.35 in Calm     83 % 0.00 in
20:46 42.6 °F 38.1 °F 30.35 in Calm     84 % 0.00 in
20:51 42.7 °F 38.2 °F 30.35 in Calm     84 % 0.00 in
20:56 42.7 °F 38.2 °F 30.35 in Calm     84 % 0.00 in
21:01 42.6 °F 38.1 °F 30.35 in Calm     84 % 0.00 in
21:06 42.2 °F 37.4 °F 30.35 in Calm     83 % 0.00 in
21:11 41.5 °F 37.0 °F 30.36 in Calm     84 % 0.00 in
21:16 41.2 °F 37.0 °F 30.36 in Calm     85 % 0.00 in
21:21 41.0 °F 37.1 °F 30.36 in Calm     86 % 0.00 in
21:26 40.8 °F 37.2 °F 30.36 in Calm     87 % 0.00 in
21:31 40.7 °F 37.1 °F 30.36 in Calm     87 % 0.00 in
21:36 40.7 °F 37.1 °F 30.36 in Calm     87 % 0.00 in
21:41 40.8 °F 37.5 °F 30.36 in Calm     88 % 0.00 in
21:46 40.7 °F 37.1 °F 30.37 in Calm     87 % 0.00 in
21:51 40.5 °F 36.9 °F 30.37 in Calm     87 % 0.00 in
21:56 40.4 °F 37.1 °F 30.37 in Calm     88 % 0.00 in
22:01 40.5 °F 37.2 °F 30.37 in Calm     88 % 0.00 in
22:06 40.6 °F 37.3 °F 30.37 in Calm     88 % 0.00 in
22:11 40.8 °F 37.2 °F 30.36 in Calm     87 % 0.00 in
22:16 40.8 °F 37.2 °F 30.37 in Calm     87 % 0.00 in
22:21 40.7 °F 37.1 °F 30.37 in Calm     87 % 0.00 in
22:26 40.6 °F 37.0 °F 30.37 in Calm     87 % 0.00 in
22:31 40.5 °F 36.9 °F 30.37 in Calm     87 % 0.00 in
22:36 40.4 °F 37.1 °F 30.37 in Calm     88 % 0.00 in
22:41 40.7 °F 37.1 °F 30.37 in Calm     87 % 0.00 in
22:46 40.8 °F 37.2 °F 30.37 in Calm     87 % 0.00 in
22:51 40.9 °F 37.0 °F 30.37 in Calm     86 % 0.00 in
22:56 40.4 °F 36.2 °F 30.37 in Calm     85 % 0.00 in
23:01 39.8 °F 36.0 °F 30.37 in Calm     86 % 0.00 in
23:06 39.6 °F 36.0 °F 30.37 in Calm     87 % 0.00 in
23:11 39.2 °F 35.7 °F 30.37 in Calm     87 % 0.00 in
23:16 38.8 °F 35.3 °F 30.37 in Calm     87 % 0.00 in
23:21 38.8 °F 35.6 °F 30.37 in Calm     88 % 0.00 in
23:26 39.1 °F 35.6 °F 30.37 in Calm     87 % 0.00 in
23:31 38.7 °F 35.2 °F 30.37 in Calm     87 % 0.00 in
23:36 38.7 °F 35.5 °F 30.37 in Calm     88 % 0.00 in
23:41 38.8 °F 35.6 °F 30.37 in Calm     88 % 0.00 in
23:47 39.1 °F 35.8 °F 30.37 in East 1.2 mph   88 % 0.00 in
23:52 39.3 °F 35.8 °F 30.37 in Calm     87 % 0.00 in
23:57 39.3 °F 35.5 °F 30.37 in Calm     86 % 0.00 in
Park Place, Exeter, Tulare County, California, USA
Compliments of Weather Underground - 2.75 mb